createdAt,value
2023-02-03T00:01:25.627Z,1.67
2023-02-03T00:03:53.751Z,1.33
2023-02-03T00:06:23.493Z,1.50
2023-02-03T00:08:55.399Z,1.53
2023-02-03T00:11:23.985Z,1.70
2023-02-03T00:13:52.149Z,1.60
2023-02-03T00:16:20.355Z,1.80
2023-02-03T00:18:48.577Z,1.60
2023-02-03T00:21:16.686Z,1.40
2023-02-03T00:23:46.360Z,1.40
2023-02-03T00:26:17.453Z,2.03
2023-02-03T00:28:47.812Z,1.50
2023-02-03T00:31:18.361Z,1.57
2023-02-03T00:33:46.540Z,1.73
2023-02-03T00:36:15.552Z,1.37
2023-02-03T00:38:45.029Z,1.50
2023-02-03T00:41:13.589Z,1.30
2023-02-03T00:43:41.721Z,1.60
2023-02-03T00:46:09.900Z,1.67
2023-02-03T00:48:38.062Z,1.47
2023-02-03T00:51:06.833Z,1.40
2023-02-03T00:53:35.382Z,1.60
2023-02-03T00:56:12.376Z,1.77
2023-02-03T00:58:40.672Z,1.40
2023-02-03T01:01:09.682Z,1.70
2023-02-03T01:03:37.931Z,1.30
2023-02-03T01:06:15.500Z,1.47
2023-02-03T01:08:44.207Z,1.80
2023-02-03T01:11:17.136Z,1.33
2023-02-03T01:13:46.281Z,1.50
2023-02-03T01:16:19.270Z,1.90
2023-02-03T01:18:49.035Z,1.57
2023-02-03T01:21:20.481Z,1.73
2023-02-03T01:23:49.217Z,1.60
2023-02-03T01:26:22.240Z,1.80
2023-02-03T01:28:53.784Z,1.60
2023-02-03T01:31:24.999Z,1.70
2023-02-03T01:33:54.815Z,2.07
2023-02-03T01:36:26.413Z,2.40
2023-02-03T01:38:55.075Z,2.00
2023-02-03T01:41:28.123Z,2.00
2023-02-03T01:43:59.518Z,2.67
2023-02-03T01:46:34.620Z,2.67
2023-02-03T01:49:11.067Z,2.47
2023-02-03T01:51:43.165Z,2.70
2023-02-03T01:54:17.230Z,2.80
2023-02-03T01:56:53.496Z,3.00
2023-02-03T01:59:25.558Z,3.20
2023-02-03T02:01:55.955Z,3.23
2023-02-03T02:04:33.226Z,3.00
2023-02-03T02:07:01.837Z,3.50
2023-02-03T02:09:30.614Z,3.63
2023-02-03T02:12:00.137Z,3.37
2023-02-03T02:14:28.436Z,4.00
2023-02-03T02:17:07.975Z,4.37
2023-02-03T02:20:12.417Z,3.80
2023-02-03T02:23:08.738Z,3.90
2023-02-03T02:26:05.645Z,4.33
2023-02-03T02:29:09.386Z,4.87
2023-02-03T02:31:58.139Z,4.20
2023-02-03T02:34:40.779Z,5.47
2023-02-03T02:37:32.633Z,5.50
2023-02-03T02:40:15.822Z,5.87
2023-02-03T02:43:01.327Z,6.80
2023-02-03T02:45:33.571Z,6.87
2023-02-03T02:48:14.011Z,7.50
2023-02-03T02:50:49.409Z,7.80
2023-02-03T02:53:23.472Z,8.53
2023-02-03T02:55:55.050Z,8.83
2023-02-03T02:58:25.772Z,8.73
2023-02-03T03:00:53.873Z,8.50
2023-02-03T03:03:25.270Z,9.33
2023-02-03T03:05:58.365Z,9.37
2023-02-03T03:08:42.547Z,9.63
2023-02-03T03:11:10.871Z,10.13
2023-02-03T03:13:45.672Z,10.37
2023-02-03T03:16:19.200Z,10.30
2023-02-03T03:18:53.879Z,11.10
2023-02-03T03:21:28.446Z,11.03
2023-02-03T03:24:04.923Z,11.10
2023-02-03T03:26:40.783Z,11.50
2023-02-03T03:29:19.114Z,10.97
2023-02-03T03:31:47.899Z,10.53
2023-02-03T03:34:18.733Z,10.67
2023-02-03T03:36:55.818Z,11.47
2023-02-03T03:39:33.692Z,11.27
2023-02-03T03:42:11.383Z,11.43
2023-02-03T03:44:50.909Z,11.13
2023-02-03T03:47:28.744Z,10.70
2023-02-03T03:50:03.530Z,10.83
2023-02-03T03:52:37.726Z,11.87
2023-02-03T03:55:11.513Z,11.07
2023-02-03T03:57:46.215Z,11.43
2023-02-03T04:00:21.024Z,10.87
2023-02-03T04:02:55.401Z,10.90
2023-02-03T04:05:25.741Z,10.83
2023-02-03T04:07:54.137Z,12.30
2023-02-03T04:10:32.359Z,10.83
2023-02-03T04:13:01.047Z,10.13
2023-02-03T04:15:29.431Z,11.50
2023-02-03T04:17:58.077Z,11.03
2023-02-03T04:20:27.927Z,11.83
2023-02-03T04:22:56.293Z,11.73
2023-02-03T04:25:24.805Z,11.47
2023-02-03T04:27:53.274Z,11.80
2023-02-03T04:30:21.502Z,11.70
2023-02-03T04:32:49.892Z,11.40
2023-02-03T04:35:18.371Z,12.20
2023-02-03T04:37:48.131Z,10.90
2023-02-03T04:40:16.662Z,11.63
2023-02-03T04:42:44.826Z,10.90
2023-02-03T04:45:13.757Z,10.97
2023-02-03T04:47:41.961Z,10.80
2023-02-03T04:50:11.227Z,11.17
2023-02-03T04:52:39.421Z,11.43
2023-02-03T04:55:09.845Z,11.93
2023-02-03T04:57:37.957Z,12.50
2023-02-03T05:00:08.015Z,11.53
2023-02-03T05:02:36.121Z,12.20
2023-02-03T05:05:04.352Z,11.70
2023-02-03T05:07:32.455Z,11.93
2023-02-03T05:10:00.577Z,11.67
2023-02-03T05:12:30.039Z,11.63
2023-02-03T05:14:58.171Z,11.47
2023-02-03T05:17:26.376Z,12.13
2023-02-03T05:19:54.451Z,12.27
2023-02-03T05:22:22.556Z,11.37
2023-02-03T05:24:50.691Z,12.27
2023-02-03T05:27:18.762Z,11.60
2023-02-03T05:29:48.277Z,11.67
2023-02-03T05:32:16.424Z,11.20
2023-02-03T05:34:44.554Z,11.67
2023-02-03T05:37:12.700Z,10.13
2023-02-03T05:39:40.831Z,10.30
2023-02-03T05:42:07.984Z,10.37
2023-02-03T05:44:36.097Z,10.50
2023-02-03T05:47:05.629Z,9.83
2023-02-03T05:49:33.775Z,9.30
2023-02-03T05:52:03.497Z,9.53
2023-02-03T05:54:31.692Z,8.53
2023-02-03T05:56:59.829Z,9.03
2023-02-03T05:59:28.037Z,8.73
2023-02-03T06:01:56.169Z,8.87
2023-02-03T06:04:25.651Z,8.90
2023-02-03T06:06:53.791Z,8.80
2023-02-03T06:09:21.942Z,8.80
2023-02-03T06:11:50.039Z,9.33
2023-02-03T06:14:18.137Z,9.30
2023-02-03T06:16:47.406Z,9.60
2023-02-03T06:19:16.472Z,8.93
2023-02-03T06:21:46.021Z,9.60
2023-02-03T06:24:14.338Z,9.27
2023-02-03T06:26:42.483Z,9.33
2023-02-03T06:29:10.543Z,8.77
2023-02-03T06:31:38.794Z,10.03
2023-02-03T06:34:07.017Z,8.20
2023-02-03T06:36:35.159Z,8.23
2023-02-03T06:39:04.815Z,8.03
2023-02-03T06:41:32.953Z,7.70
2023-02-03T06:44:01.091Z,7.83
2023-02-03T06:46:30.457Z,7.93
2023-02-03T06:48:58.573Z,7.67
2023-02-03T06:51:26.780Z,7.13
2023-02-03T06:53:54.965Z,7.53
2023-02-03T06:56:24.455Z,7.20
2023-02-03T06:58:52.571Z,7.20
2023-02-03T07:01:20.883Z,7.20
2023-02-03T07:03:49.161Z,7.10
2023-02-03T07:06:17.293Z,7.20
2023-02-03T07:08:45.548Z,6.57
2023-02-03T07:11:13.635Z,6.57
2023-02-03T07:13:43.115Z,6.13
2023-02-03T07:16:11.410Z,6.67
2023-02-03T07:18:48.091Z,5.90
2023-02-03T07:21:18.956Z,5.43
2023-02-03T07:23:49.341Z,5.60
2023-02-03T07:26:18.838Z,6.23
2023-02-03T07:28:48.300Z,5.60
2023-02-03T07:31:17.013Z,5.90
2023-02-03T07:33:45.288Z,5.53
2023-02-03T07:36:13.608Z,5.53
2023-02-03T07:38:41.747Z,5.63
2023-02-03T07:41:09.936Z,5.83
2023-02-03T07:43:38.029Z,6.67
2023-02-03T07:46:07.752Z,6.20
2023-02-03T07:48:35.932Z,6.13
2023-02-03T07:51:04.205Z,6.93
2023-02-03T07:53:32.783Z,6.90
2023-02-03T07:56:02.612Z,6.93
2023-02-03T07:58:31.441Z,6.53
2023-02-03T08:01:00.740Z,7.40
2023-02-03T08:03:30.175Z,6.53
2023-02-03T08:05:58.275Z,6.90
2023-02-03T08:08:26.390Z,6.73
2023-02-03T08:10:56.899Z,6.17
2023-02-03T08:13:25.041Z,6.80
2023-02-03T08:15:53.237Z,6.30
2023-02-03T08:18:22.389Z,5.97
2023-02-03T08:20:51.892Z,6.00
2023-02-03T08:23:20.049Z,5.87
2023-02-03T08:25:52.776Z,5.70
2023-02-03T08:28:21.477Z,6.33
2023-02-03T08:30:49.718Z,6.10
2023-02-03T08:33:17.850Z,5.60
2023-02-03T08:35:48.821Z,6.20
2023-02-03T08:38:19.292Z,5.80
2023-02-03T08:40:47.391Z,5.70
2023-02-03T08:43:15.450Z,5.50
2023-02-03T08:45:43.537Z,5.37
2023-02-03T08:48:11.696Z,5.30
2023-02-03T08:50:42.620Z,5.27
2023-02-03T08:53:10.934Z,4.97
2023-02-03T08:55:41.542Z,4.93
2023-02-03T08:58:09.619Z,4.70
2023-02-03T09:00:37.715Z,4.70
2023-02-03T09:03:05.944Z,4.50
2023-02-03T09:05:35.020Z,4.97
2023-02-03T09:08:03.306Z,5.20
2023-02-03T09:10:31.550Z,4.20
2023-02-03T09:13:01.194Z,4.17
2023-02-03T09:16:17.762Z,4.13
2023-02-03T09:18:46.771Z,4.10
2023-02-03T09:21:31.651Z,3.70
2023-02-03T09:24:03.286Z,3.40
2023-02-03T09:26:32.049Z,3.70
2023-02-03T09:29:01.624Z,3.60
2023-02-03T09:31:29.789Z,3.70
2023-02-03T09:33:59.501Z,3.80
2023-02-03T09:36:27.976Z,3.73
2023-02-03T09:38:56.169Z,3.57
2023-02-03T09:41:45.171Z,3.73
2023-02-03T09:44:23.645Z,3.80
2023-02-03T09:46:58.913Z,3.67
2023-02-03T09:49:38.669Z,3.33
2023-02-03T09:52:15.162Z,3.47
2023-02-03T09:54:51.110Z,3.40
2023-02-03T09:57:23.398Z,3.33
2023-02-03T09:59:55.401Z,3.40
2023-02-03T10:02:53.589Z,3.40
2023-02-03T10:05:31.742Z,3.60
2023-02-03T10:08:14.169Z,3.30
2023-02-03T10:11:09.344Z,3.27
2023-02-03T10:13:53.466Z,3.07
2023-02-03T10:16:45.121Z,3.20
2023-02-03T10:19:23.713Z,2.90
2023-02-03T10:21:58.575Z,2.80
2023-02-03T10:24:38.239Z,2.90
2023-02-03T10:27:10.446Z,2.50
2023-02-03T10:29:43.706Z,2.47
2023-02-03T10:32:14.372Z,2.70
2023-02-03T10:34:48.376Z,3.20
2023-02-03T10:37:30.699Z,2.57
2023-02-03T10:40:02.069Z,3.23
2023-02-03T10:42:53.102Z,2.73
2023-02-03T10:45:22.372Z,3.10
2023-02-03T10:47:55.840Z,2.27
2023-02-03T10:50:31.979Z,2.63
2023-02-03T10:53:24.589Z,2.70
2023-02-03T10:56:04.470Z,2.53
2023-02-03T10:58:35.112Z,2.60
2023-02-03T11:01:11.962Z,2.40
2023-02-03T11:03:45.138Z,2.27
2023-02-03T11:06:15.876Z,2.30
2023-02-03T11:08:47.210Z,2.20
2023-02-03T11:11:24.925Z,2.23
2023-02-03T11:14:13.116Z,2.30
2023-02-03T11:16:44.370Z,2.17
2023-02-03T11:19:20.001Z,2.00
2023-02-03T11:21:52.759Z,2.00
2023-02-03T11:24:24.980Z,2.20
2023-02-03T11:26:59.139Z,1.90
2023-02-03T11:29:31.348Z,2.13
2023-02-03T11:32:03.499Z,2.30
2023-02-03T11:34:37.873Z,2.20
2023-02-03T11:37:32.223Z,2.20
2023-02-03T11:40:27.689Z,2.07
2023-02-03T11:43:16.434Z,2.33
2023-02-03T11:45:48.684Z,1.90
2023-02-03T11:48:30.546Z,2.20
2023-02-03T11:51:21.307Z,2.10
2023-02-03T11:54:12.902Z,2.00
2023-02-03T11:57:10.110Z,2.20
2023-02-03T11:59:57.278Z,1.90
2023-02-03T12:03:04.215Z,2.50
2023-02-03T12:06:08.133Z,2.43
2023-02-03T12:09:00.636Z,2.47
2023-02-03T12:11:53.072Z,2.43
2023-02-03T12:14:45.789Z,2.80
2023-02-03T12:17:50.800Z,2.33
2023-02-03T12:20:46.054Z,2.90
2023-02-03T12:23:34.678Z,2.40
2023-02-03T12:26:20.486Z,2.10
2023-02-03T12:29:01.580Z,1.97
2023-02-03T12:31:39.153Z,2.17
2023-02-03T12:34:19.993Z,1.73
2023-02-03T12:36:56.877Z,2.07
2023-02-03T12:39:32.683Z,2.10
2023-02-03T12:42:13.227Z,1.70
2023-02-03T12:44:52.438Z,1.40
2023-02-03T12:47:33.057Z,1.13
2023-02-03T12:50:08.340Z,1.00
2023-02-03T12:52:45.171Z,1.10
2023-02-03T12:55:26.170Z,1.00
2023-02-03T12:58:03.053Z,1.10
2023-02-03T13:00:44.933Z,1.07
2023-02-03T13:03:24.238Z,1.13
2023-02-03T13:06:05.788Z,1.27
2023-02-03T13:08:39.316Z,1.20
2023-02-03T13:11:24.196Z,1.17
2023-02-03T13:14:01.645Z,0.97
2023-02-03T13:16:40.562Z,1.60
2023-02-03T13:19:17.968Z,1.93
2023-02-03T13:21:46.557Z,1.67
2023-02-03T13:24:14.634Z,1.73
2023-02-03T13:27:15.881Z,2.00
2023-02-03T13:30:05.446Z,1.70
2023-02-03T13:33:08.963Z,1.87
2023-02-03T13:35:57.970Z,1.80
2023-02-03T13:38:55.439Z,2.27
2023-02-03T13:41:33.227Z,2.00
2023-02-03T13:44:02.178Z,2.20
2023-02-03T13:46:36.634Z,2.20
2023-02-03T13:49:08.684Z,2.40
2023-02-03T13:51:46.069Z,2.07
2023-02-03T13:54:24.098Z,2.43
2023-02-03T13:57:02.162Z,2.27
2023-02-03T13:59:43.653Z,2.20
2023-02-03T14:02:46.496Z,2.33
2023-02-03T14:05:43.397Z,1.43
2023-02-03T14:08:59.263Z,2.20
2023-02-03T14:11:50.996Z,1.90
2023-02-03T14:14:56.246Z,1.60
2023-02-03T14:18:31.546Z,1.90
2023-02-03T14:21:23.080Z,1.90
2023-02-03T14:24:04.536Z,2.53
2023-02-03T14:26:41.097Z,2.60
2023-02-03T14:29:12.565Z,2.33
2023-02-03T14:32:02.582Z,2.87
2023-02-03T14:34:42.186Z,2.53
2023-02-03T14:37:22.558Z,2.90
2023-02-03T14:40:26.265Z,2.50
2023-02-03T14:43:24.617Z,2.33
2023-02-03T14:46:33.849Z,2.60
2023-02-03T14:49:42.368Z,2.50
2023-02-03T14:52:58.991Z,2.90
2023-02-03T14:55:53.281Z,2.67
2023-02-03T14:58:31.143Z,2.40
2023-02-03T15:01:00.422Z,2.60
2023-02-03T15:03:31.001Z,3.33
2023-02-03T15:06:05.429Z,2.70
2023-02-03T15:08:47.171Z,3.10
2023-02-03T15:11:33.440Z,3.10
2023-02-03T15:14:24.863Z,2.90
2023-02-03T15:16:59.119Z,3.33
2023-02-03T15:19:32.929Z,2.43
2023-02-03T15:22:01.652Z,3.40
2023-02-03T15:24:38.860Z,2.97
2023-02-03T15:27:21.088Z,2.77
2023-02-03T15:29:49.155Z,3.10
2023-02-03T15:32:27.311Z,2.93
2023-02-03T15:34:59.763Z,2.70
2023-02-03T15:37:46.322Z,3.47
2023-02-03T15:40:20.886Z,2.83
2023-02-03T15:42:58.212Z,2.87
2023-02-03T15:45:35.295Z,2.73
2023-02-03T15:48:12.951Z,2.37
2023-02-03T15:50:48.072Z,2.87
2023-02-03T15:53:29.664Z,2.60
2023-02-03T15:56:06.920Z,2.70
2023-02-03T15:58:46.948Z,2.57
2023-02-03T16:01:20.311Z,2.70
2023-02-03T16:03:53.568Z,2.57
2023-02-03T16:06:29.712Z,2.70
2023-02-03T16:08:59.573Z,2.93
2023-02-03T16:11:33.957Z,2.83
2023-02-03T16:14:04.607Z,2.97
2023-02-03T16:16:42.399Z,3.10
2023-02-03T16:19:17.110Z,3.00
2023-02-03T16:21:55.592Z,2.60
2023-02-03T16:24:40.300Z,2.67
2023-02-03T16:27:33.997Z,2.17
2023-02-03T16:30:42.859Z,2.50
2023-02-03T16:33:36.219Z,2.80
2023-02-03T16:36:31.277Z,2.97
2023-02-03T16:39:21.607Z,3.00
2023-02-03T16:42:07.369Z,2.93
2023-02-03T16:44:54.567Z,2.70
2023-02-03T16:47:44.714Z,2.80
2023-02-03T16:50:38.981Z,3.20
2023-02-03T16:53:13.626Z,3.00
2023-02-03T16:55:41.944Z,2.73
2023-02-03T16:58:11.856Z,2.87
2023-02-03T17:00:42.493Z,2.40
2023-02-03T17:03:14.256Z,2.13
2023-02-03T17:05:45.393Z,2.93
2023-02-03T17:08:15.169Z,2.87
2023-02-03T17:10:45.697Z,2.87
2023-02-03T17:13:13.841Z,2.33
2023-02-03T17:15:46.695Z,2.37
2023-02-03T17:18:16.541Z,2.37
2023-02-03T17:20:46.556Z,2.40
2023-02-03T17:23:16.088Z,2.50
2023-02-03T17:25:46.718Z,2.47
2023-02-03T17:28:15.531Z,2.40
2023-02-03T17:30:45.526Z,2.50
2023-02-03T17:33:13.739Z,2.67
2023-02-03T17:35:43.769Z,3.13
2023-02-03T17:38:13.904Z,2.30
2023-02-03T17:54:40.032Z,2.37
2023-02-03T17:57:08.111Z,2.60
2023-02-03T17:59:37.680Z,2.50
2023-02-03T18:02:07.418Z,2.97
2023-02-03T18:04:35.796Z,2.70
2023-02-03T18:07:03.867Z,2.90
2023-02-03T18:09:32.030Z,2.80
2023-02-03T18:12:00.073Z,2.67
2023-02-03T18:14:28.197Z,2.37
2023-02-03T18:16:56.302Z,2.63
2023-02-03T18:19:25.772Z,2.83
2023-02-03T18:21:53.826Z,2.53
2023-02-03T18:24:27.868Z,2.90
2023-02-03T18:27:00.095Z,3.60
2023-02-03T18:29:29.599Z,3.20
2023-02-03T18:31:57.659Z,2.70
2023-02-03T18:34:27.098Z,2.63
2023-02-03T18:36:55.148Z,2.87
2023-02-03T18:39:23.294Z,2.80
2023-02-03T18:41:51.338Z,2.53
2023-02-03T18:44:19.571Z,3.13
2023-02-03T18:46:47.671Z,2.77
2023-02-03T18:49:15.735Z,2.50
2023-02-03T18:51:45.147Z,3.47
2023-02-03T18:54:13.963Z,3.27
2023-02-03T18:56:42.213Z,3.03
2023-02-03T18:59:11.875Z,3.57
2023-02-03T19:01:40.692Z,2.87
2023-02-03T19:04:08.949Z,2.80
2023-02-03T19:06:37.493Z,2.83
2023-02-03T19:09:07.311Z,2.80
2023-02-03T19:11:35.502Z,3.27
2023-02-03T19:14:03.618Z,2.97
2023-02-03T19:16:32.099Z,2.80
2023-02-03T19:19:00.615Z,2.77
2023-02-03T19:21:28.697Z,3.47
2023-02-03T19:23:56.844Z,2.97
2023-02-03T19:26:27.696Z,3.30
2023-02-03T19:28:56.661Z,2.70
2023-02-03T19:31:24.902Z,3.10
2023-02-03T19:33:52.969Z,2.87
2023-02-03T19:36:21.043Z,3.00
2023-02-03T19:38:49.632Z,2.73
2023-02-03T19:41:17.748Z,3.37
2023-02-03T19:43:47.882Z,3.50
2023-02-03T19:46:16.016Z,3.20
2023-02-03T19:48:44.099Z,3.60
2023-02-03T19:51:13.085Z,2.90
2023-02-03T19:53:41.248Z,3.60
2023-02-03T19:56:09.343Z,3.00
2023-02-03T19:58:38.549Z,3.40
2023-02-03T20:01:10.081Z,3.20
2023-02-03T20:03:38.181Z,3.20
2023-02-03T20:06:06.971Z,3.00
2023-02-03T20:08:35.116Z,3.07
2023-02-03T20:11:03.521Z,3.60
2023-02-03T20:13:32.076Z,2.83
2023-02-03T20:16:00.602Z,3.37
2023-02-03T20:18:30.162Z,3.10
2023-02-03T20:20:59.452Z,3.07
2023-02-03T20:23:27.620Z,4.07
2023-02-03T20:25:56.309Z,3.70
2023-02-03T20:28:27.535Z,2.73
2023-02-03T20:30:58.783Z,3.33
2023-02-03T20:33:30.890Z,3.20
2023-02-03T20:35:59.751Z,3.20
2023-02-03T20:38:28.489Z,3.13
2023-02-03T20:40:57.313Z,2.90
2023-02-03T20:43:28.678Z,2.93
2023-02-03T20:45:56.985Z,2.40
2023-02-03T20:48:25.661Z,2.90
2023-02-03T20:50:55.213Z,2.87
2023-02-03T20:53:26.054Z,3.17
2023-02-03T20:56:01.408Z,2.80
2023-02-03T20:58:33.364Z,2.83
2023-02-03T21:01:03.742Z,2.83
2023-02-03T21:03:49.198Z,3.00
2023-02-03T21:06:20.780Z,2.60
2023-02-03T21:08:49.695Z,2.80
2023-02-03T21:11:20.727Z,3.53
2023-02-03T21:13:50.590Z,2.50
2023-02-03T21:16:22.960Z,2.77
2023-02-03T21:18:54.877Z,2.37
2023-02-03T21:21:34.661Z,2.10
2023-02-03T21:24:05.797Z,2.70
2023-02-03T21:26:35.907Z,3.27
2023-02-03T21:29:04.329Z,2.50
2023-02-03T21:31:35.612Z,2.73
2023-02-03T21:34:12.121Z,3.10
2023-02-03T21:36:41.587Z,2.90
2023-02-03T21:39:27.232Z,3.03
2023-02-03T21:41:56.023Z,2.43
2023-02-03T21:44:32.860Z,3.07
2023-02-03T21:47:06.185Z,2.43
2023-02-03T21:49:36.504Z,3.10
2023-02-03T21:52:06.545Z,2.90
2023-02-03T21:54:37.220Z,2.80
2023-02-03T21:57:06.049Z,2.77
2023-02-03T21:59:42.741Z,3.30
2023-02-03T22:02:55.810Z,2.63
2023-02-03T22:05:23.997Z,2.67
2023-02-03T22:07:54.725Z,2.93
2023-02-03T22:10:22.846Z,2.60
2023-02-03T22:12:50.956Z,2.80
2023-02-03T22:15:19.088Z,2.70
2023-02-03T22:17:49.651Z,2.83
2023-02-03T22:20:17.957Z,2.63
2023-02-03T22:22:46.206Z,2.80
2023-02-03T22:25:15.849Z,2.77
2023-02-03T22:27:44.035Z,3.10
2023-02-03T22:30:17.891Z,2.37
2023-02-03T22:32:46.109Z,1.93
2023-02-03T22:35:14.183Z,2.57
2023-02-03T22:37:42.470Z,3.07
2023-02-03T22:40:13.546Z,2.67
2023-02-03T22:42:43.133Z,2.60
2023-02-03T22:45:13.453Z,2.60
2023-02-03T22:47:42.641Z,2.50
2023-02-03T22:50:13.470Z,2.80
2023-02-03T22:52:42.178Z,2.73
2023-02-03T22:55:11.749Z,2.63
2023-02-03T22:57:41.167Z,2.57
2023-02-03T23:00:13.591Z,3.10
2023-02-03T23:02:42.274Z,2.67
2023-02-03T23:05:11.162Z,2.40
2023-02-03T23:07:39.893Z,2.40
2023-02-03T23:10:11.459Z,2.23
2023-02-03T23:12:39.663Z,2.53
2023-02-03T23:15:10.549Z,2.13
2023-02-03T23:17:38.695Z,2.43
2023-02-03T23:20:10.005Z,2.10
2023-02-03T23:22:38.258Z,2.47
2023-02-03T23:25:07.288Z,2.80
2023-02-03T23:27:35.435Z,2.37
2023-02-03T23:30:04.127Z,2.30
2023-02-03T23:32:33.886Z,2.50
2023-02-03T23:35:19.745Z,2.30
2023-02-03T23:37:48.199Z,2.40
2023-02-03T23:40:16.507Z,2.30
2023-02-03T23:42:44.743Z,2.27
2023-02-03T23:45:13.166Z,3.20
2023-02-03T23:47:44.913Z,1.43
2023-02-03T23:50:16.941Z,0.80
2023-02-03T23:52:45.260Z,0.83
2023-02-03T23:55:16.822Z,0.60
2023-02-03T23:57:44.939Z,0.67
